Time;durP1;ratioP1;P1;durP2;ratioP2;P2;SDS_P1;SDS_P2;PMS_P1;PMS_P2;Temp;Humidity;BMP_temperature;BMP_pressure;BME280_temperature;BME280_humidity;BME280_pressure;Samples;Min_cycle;Max_cycle;Signal;HPM_P1;HPM_P2
2024/01/25 00:00:53;;;;;;;;;;;;;;;21.22;22.16;97971.84;5014048;28;1004;-74
2024/01/25 00:03:18;;;;;;;;;;;;;;;21.38;21.93;97967.44;4996347;28;1988;-74
2024/01/25 00:05:44;;;;;;;;;;;;;;;21.57;21.79;97972.19;4996655;28;1969;-74
2024/01/25 00:08:09;;;;;;;;;;;;;;;21.52;21.69;97967.06;4996956;28;1405;-74
2024/01/25 00:10:35;;;;;;;;;;;;;;;21.46;21.89;97963.19;5029578;28;959;-74
2024/01/25 00:13:01;;;;;;;;;;;;;;;21.62;21.67;97960.34;5035743;28;921;-74
2024/01/25 00:15:27;;;;;;;;;;;;;;;21.79;21.35;97952.56;5035678;28;1279;-74
2024/01/25 00:17:54;;;;;;;;;;;;;;;21.55;21.71;97946.34;5036847;28;1045;-75
2024/01/25 00:20:19;;;;;;;;;;;;;;;21.28;22.07;97947.44;5036802;28;1054;-74
2024/01/25 00:22:45;;;;;;;;;;;;;;;21.59;21.88;97961.22;5016002;28;2191;-74
2024/01/25 00:25:10;;;;;;;;;;;;;;;21.45;21.97;97961.59;5033048;28;1275;-74
2024/01/25 00:27:36;;;;;;;;;;;;;;;21.49;22.04;97963.09;5033304;28;1918;-74
2024/01/25 00:30:02;;;;;;;;;;;;;;;21.51;21.74;97954.16;5033376;28;1004;-74
2024/01/25 00:32:27;;;;;;;;;;;;;;;21.55;21.93;97955.66;5041636;28;2095;-74
2024/01/25 00:34:53;;;;;;;;;;;;;;;21.37;22.09;97966.66;5053326;28;981;-74
2024/01/25 00:37:18;;;;;;;;;;;;;;;21.76;21.69;97948.63;5036670;28;924;-74
2024/01/25 00:39:44;;;;;;;;;;;;;;;21.60;21.62;97957.13;4996962;28;1149;-74
2024/01/25 00:42:11;;;;;;;;;;;;;;;21.35;22.05;97951.34;5012652;28;1975;-74
2024/01/25 00:44:37;;;;;;;;;;;;;;;21.65;21.58;97959.41;5013772;28;1021;-74
2024/01/25 00:47:02;;;;;;;;;;;;;;;21.27;22.17;97953.56;4998869;28;1902;-74
2024/01/25 00:49:28;;;;;;;;;;;;;;;21.31;22.08;97940.13;4977425;28;967;-74
2024/01/25 00:51:55;;;;;;;;;;;;;;;21.14;22.22;97936.50;4998840;28;1791;-74
2024/01/25 00:54:21;;;;;;;;;;;;;;;21.37;21.92;97931.91;5017126;28;1038;-74
2024/01/25 00:56:50;;;;;;;;;;;;;;;21.44;21.99;97920.38;5017340;28;1062;-74
2024/01/25 00:59:16;;;;;;;;;;;;;;;21.52;22.08;97916.91;4997305;28;1032;-74
2024/01/25 01:01:42;;;;;;;;;;;;;;;21.63;21.73;97907.31;4996670;28;1865;-74
2024/01/25 01:04:07;;;;;;;;;;;;;;;21.64;21.93;97895.53;4997357;28;917;-74
2024/01/25 01:06:33;;;;;;;;;;;;;;;21.64;21.88;97895.53;4997365;28;1981;-74
2024/01/25 01:08:59;;;;;;;;;;;;;;;21.42;21.96;97888.91;4977750;28;1262;-74
2024/01/25 01:11:24;;;;;;;;;;;;;;;21.30;22.28;97894.06;4961682;28;944;-74
2024/01/25 01:13:50;;;;;;;;;;;;;;;21.24;22.13;97876.00;4977161;28;1874;-75
2024/01/25 01:16:16;;;;;;;;;;;;;;;21.49;21.97;97871.72;4977557;28;1219;-74
2024/01/25 01:18:41;;;;;;;;;;;;;;;21.51;21.95;97864.38;4961460;28;1164;-74
2024/01/25 01:21:07;;;;;;;;;;;;;;;21.71;21.85;97864.22;4977610;28;1354;-74
2024/01/25 01:23:32;;;;;;;;;;;;;;;21.76;21.62;97852.31;4976608;28;1910;-75
2024/01/25 01:25:58;;;;;;;;;;;;;;;21.25;22.31;97854.97;4977192;28;1898;-74
2024/01/25 01:28:23;;;;;;;;;;;;;;;21.37;22.02;97835.66;4961478;28;995;-74
2024/01/25 01:30:49;;;;;;;;;;;;;;;21.20;22.33;97844.19;4989781;28;876;-74
2024/01/25 01:33:14;;;;;;;;;;;;;;;21.52;21.97;97836.84;5015867;28;1733;-74
2024/01/25 01:35:40;;;;;;;;;;;;;;;21.53;21.89;97844.09;5013371;28;2032;-74
2024/01/25 01:38:06;;;;;;;;;;;;;;;21.50;22.11;97833.66;4999068;28;1296;-74
2024/01/25 01:40:31;;;;;;;;;;;;;;;21.55;21.87;97838.78;5026489;28;1012;-74
2024/01/25 01:43:01;;;;;;;;;;;;;;;21.61;21.69;97839.84;5036161;28;1795;-74
2024/01/25 01:45:26;;;;;;;;;;;;;;;21.66;21.88;97830.78;5020666;28;1898;-74
2024/01/25 01:47:52;;;;;;;;;;;;;;;21.58;21.68;97820.91;5036750;28;938;-74
2024/01/25 01:50:18;;;;;;;;;;;;;;;21.69;21.76;97817.75;5039150;28;1258;-74
2024/01/25 01:52:43;;;;;;;;;;;;;;;21.78;21.54;97807.34;5037633;28;1997;-75
2024/01/25 01:55:09;;;;;;;;;;;;;;;21.66;21.54;97813.78;5037014;28;1707;-74
2024/01/25 01:57:35;;;;;;;;;;;;;;;21.28;22.04;97817.25;5039230;28;1089;-74
2024/01/25 02:00:00;;;;;;;;;;;;;;;21.41;21.87;97819.38;5038927;28;1086;-74
2024/01/25 02:02:26;;;;;;;;;;;;;;;21.66;21.64;97813.78;5054960;28;1838;-74
2024/01/25 02:04:52;;;;;;;;;;;;;;;21.67;21.84;97809.72;5039045;28;1082;-74
2024/01/25 02:07:17;;;;;;;;;;;;;;;21.68;21.59;97804.84;5039102;28;1981;-75
2024/01/25 02:09:43;;;;;;;;;;;;;;;21.66;21.49;97791.13;5038679;28;1146;-74
2024/01/25 02:12:08;;;;;;;;;;;;;;;21.43;21.94;97794.25;5038183;28;1691;-75
2024/01/25 02:14:34;;;;;;;;;;;;;;;21.62;21.65;97793.28;5038637;28;950;-74
2024/01/25 02:17:00;;;;;;;;;;;;;;;21.42;22.01;97798.31;5055405;28;1016;-74
2024/01/25 02:19:25;;;;;;;;;;;;;;;21.50;21.78;97794.03;5022230;28;1140;-74
2024/01/25 02:21:51;;;;;;;;;;;;;;;21.56;22.04;97789.41;5039795;28;1695;-75
2024/01/25 02:24:16;;;;;;;;;;;;;;;21.60;21.89;97787.25;5018697;28;1002;-74
2024/01/25 02:26:42;;;;;;;;;;;;;;;21.77;21.51;97785.94;4998931;28;1987;-74
2024/01/25 02:29:09;;;;;;;;;;;;;;;21.55;21.86;97782.16;5015611;28;1053;-74
2024/01/25 02:31:35;;;;;;;;;;;;;;;21.59;21.71;97780.81;4984773;28;944;-75
2024/01/25 02:34:00;;;;;;;;;;;;;;;21.77;21.75;97785.16;5001536;28;2010;-74
2024/01/25 02:36:26;;;;;;;;;;;;;;;21.67;21.52;97781.41;5018643;28;1103;-74
2024/01/25 02:38:51;;;;;;;;;;;;;;;21.88;21.67;97773.47;5018472;28;1329;-74
2024/01/25 02:41:17;;;;;;;;;;;;;;;21.88;21.25;97762.16;5018610;28;1038;-74
2024/01/25 02:43:42;;;;;;;;;;;;;;;21.77;21.84;97768.94;5017549;28;1978;-74
2024/01/25 02:46:08;;;;;;;;;;;;;;;21.91;21.64;97761.22;5034873;28;1906;-74
2024/01/25 02:48:34;;;;;;;;;;;;;;;21.75;21.48;97756.47;5034849;28;1064;-74
2024/01/25 02:51:00;;;;;;;;;;;;;;;21.49;21.88;97747.94;5034935;28;949;-74
2024/01/25 02:53:25;;;;;;;;;;;;;;;21.62;21.66;97747.97;5034178;28;1623;-74
2024/01/25 02:55:51;;;;;;;;;;;;;;;21.75;21.72;97748.75;5034799;28;1148;-74
2024/01/25 02:58:16;;;;;;;;;;;;;;;21.57;21.65;97748.53;5036140;28;1037;-74
2024/01/25 03:00:42;;;;;;;;;;;;;;;21.61;21.82;97746.41;5034186;28;1644;-74
2024/01/25 03:03:07;;;;;;;;;;;;;;;21.95;21.53;97730.75;5037290;28;999;-74
2024/01/25 03:05:34;;;;;;;;;;;;;;;21.72;21.69;97738.34;5036874;28;1902;-74
2024/01/25 03:08:00;;;;;;;;;;;;;;;21.69;21.76;97725.09;5019724;28;1064;-74
2024/01/25 03:10:25;;;;;;;;;;;;;;;21.68;21.65;97717.06;5036021;28;1666;-74
2024/01/25 03:12:51;;;;;;;;;;;;;;;21.44;22.13;97716.56;5035373;28;1023;-75
2024/01/25 03:15:16;;;;;;;;;;;;;;;21.56;22.06;97707.31;5035341;28;1057;-74
2024/01/25 03:17:42;;;;;;;;;;;;;;;21.58;22.02;97704.81;5036615;28;1079;-74
2024/01/25 03:20:08;;;;;;;;;;;;;;;21.97;21.45;97691.44;5035670;28;1145;-74
2024/01/25 03:22:33;;;;;;;;;;;;;;;21.82;21.68;97691.91;4997535;28;2051;-74
2024/01/25 03:24:59;;;;;;;;;;;;;;;21.83;21.72;97695.53;5015400;28;1180;-74
2024/01/25 03:27:24;;;;;;;;;;;;;;;22.06;21.23;97694.38;5015255;28;1915;-74
2024/01/25 03:29:50;;;;;;;;;;;;;;;22.04;21.24;97685.53;5015648;28;1074;-74
2024/01/25 03:32:15;;;;;;;;;;;;;;;21.77;21.75;97683.19;5035375;28;1682;-74
2024/01/25 03:34:41;;;;;;;;;;;;;;;21.45;21.96;97687.00;5035298;28;1177;-74
2024/01/25 03:37:07;;;;;;;;;;;;;;;21.04;22.44;97678.13;5035208;28;936;-74
2024/01/25 03:39:32;;;;;;;;;;;;;;;21.87;21.66;97678.44;5035986;28;971;-74
2024/01/25 03:41:58;;;;;;;;;;;;;;;21.98;21.52;97673.19;5035925;28;1989;-74
2024/01/25 03:44:24;;;;;;;;;;;;;;;21.73;21.71;97682.50;5034711;28;934;-74
2024/01/25 03:46:49;;;;;;;;;;;;;;;22.08;21.25;97674.88;5017555;28;1910;-74
2024/01/25 03:49:15;;;;;;;;;;;;;;;21.94;21.56;97675.34;5035084;28;1085;-74
2024/01/25 03:51:40;;;;;;;;;;;;;;;22.04;21.40;97680.66;5033287;28;2045;-74
2024/01/25 03:54:06;;;;;;;;;;;;;;;21.99;21.42;97683.28;5013726;28;1433;-75
2024/01/25 03:56:31;;;;;;;;;;;;;;;21.99;21.48;97683.28;4997408;28;1046;-75
2024/01/25 03:58:57;;;;;;;;;;;;;;;21.95;21.48;97683.38;4978890;28;1776;-74
2024/01/25 04:01:22;;;;;;;;;;;;;;;21.65;21.66;97683.97;5010663;28;1108;-75
2024/01/25 04:03:48;;;;;;;;;;;;;;;21.47;21.99;97687.38;4955334;28;1180;-74
2024/01/25 04:06:13;;;;;;;;;;;;;;;21.73;21.94;97683.31;4971206;28;1979;-74
2024/01/25 04:08:39;;;;;;;;;;;;;;;21.64;21.70;97686.00;4970762;28;1899;-74
2024/01/25 04:11:05;;;;;;;;;;;;;;;21.98;21.63;97693.03;4971595;28;967;-74
2024/01/25 04:13:30;;;;;;;;;;;;;;;21.98;21.56;97701.53;4939130;29;1067;-74
2024/01/25 04:15:55;;;;;;;;;;;;;;;21.55;22.00;97700.03;4939345;29;1133;-74
2024/01/25 04:18:21;;;;;;;;;;;;;;;21.82;21.58;97703.25;4970902;28;1857;-75
2024/01/25 04:20:47;;;;;;;;;;;;;;;21.88;21.73;97708.34;4971251;28;980;-74
2024/01/25 04:23:12;;;;;;;;;;;;;;;21.64;21.55;97702.22;4971320;28;980;-74
2024/01/25 04:25:38;;;;;;;;;;;;;;;21.67;21.79;97699.28;4984947;28;1985;-74
2024/01/25 04:28:03;;;;;;;;;;;;;;;21.89;21.66;97707.09;5016611;28;1896;-74
2024/01/25 04:30:30;;;;;;;;;;;;;;;21.88;21.55;97708.34;5017768;28;1053;-74
2024/01/25 04:32:56;;;;;;;;;;;;;;;21.86;21.52;97714.44;5001291;28;882;-74
2024/01/25 04:35:21;;;;;;;;;;;;;;;22.01;21.28;97709.09;5028209;28;1010;-74
2024/01/25 04:37:47;;;;;;;;;;;;;;;22.03;21.29;97700.97;5021237;28;1989;-74
2024/01/25 04:40:13;;;;;;;;;;;;;;;21.82;21.42;97706.06;5021894;28;1285;-74
2024/01/25 04:42:38;;;;;;;;;;;;;;;22.01;21.09;97703.44;5039333;28;979;-74
2024/01/25 04:45:04;;;;;;;;;;;;;;;22.03;21.18;97700.97;5038213;28;1203;-74
2024/01/25 04:47:30;;;;;;;;;;;;;;;21.96;21.30;97698.34;5019644;28;2023;-74
2024/01/25 04:49:56;;;;;;;;;;;;;;;21.71;21.48;97696.31;5016796;28;1077;-75
2024/01/25 04:52:21;;;;;;;;;;;;;;;22.00;21.08;97690.53;5000589;28;1024;-74
2024/01/25 04:54:47;;;;;;;;;;;;;;;21.76;21.24;97701.41;4968170;28;1087;-74
2024/01/25 04:57:13;;;;;;;;;;;;;;;21.50;21.51;97703.44;5016225;28;1903;-74
2024/01/25 04:59:38;;;;;;;;;;;;;;;21.38;22.02;97702.19;4999882;28;2117;-74
2024/01/25 05:02:04;;;;;;;;;;;;;;;21.59;21.56;97698.69;5016954;28;1165;-74
2024/01/25 05:04:31;;;;;;;;;;;;;;;21.64;21.60;97702.22;5000445;28;969;-74
2024/01/25 05:06:57;;;;;;;;;;;;;;;21.76;21.22;97710.72;4984409;28;1910;-74
2024/01/25 05:09:22;;;;;;;;;;;;;;;21.87;21.11;97706.75;4984337;28;1035;-74
2024/01/25 05:11:48;;;;;;;;;;;;;;;21.89;21.20;97715.59;5000316;28;1104;-75
2024/01/25 05:14:13;;;;;;;;;;;;;;;21.92;21.06;97717.53;5000057;28;954;-74
2024/01/25 05:16:39;;;;;;;;;;;;;;;21.73;21.25;97711.63;5000284;28;1242;-74
2024/01/25 05:19:04;;;;;;;;;;;;;;;21.90;21.05;97700.16;5031567;28;1114;-74
2024/01/25 05:21:30;;;;;;;;;;;;;;;21.57;21.43;97706.06;5019844;28;973;-74
2024/01/25 05:23:55;;;;;;;;;;;;;;;21.61;21.32;97706.75;5019569;28;1269;-74
2024/01/25 05:26:21;;;;;;;;;;;;;;;21.81;21.23;97704.50;5036591;28;1988;-75
2024/01/25 05:28:46;;;;;;;;;;;;;;;21.85;20.98;97702.31;5038256;28;770;-74
2024/01/25 05:31:12;;;;;;;;;;;;;;;21.72;21.32;97693.06;5021018;28;1103;-74
2024/01/25 05:33:41;;;;;;;;;;;;;;;21.76;21.23;97685.25;5055621;28;939;-74
2024/01/25 05:36:06;;;;;;;;;;;;;;;21.80;21.06;97683.06;5039160;28;1238;-74
2024/01/25 05:38:32;;;;;;;;;;;;;;;21.50;21.30;97692.13;5015279;28;945;-74
2024/01/25 05:40:58;;;;;;;;;;;;;;;21.63;21.41;97683.66;5016265;28;968;-74
2024/01/25 05:43:23;;;;;;;;;;;;;;;21.65;21.18;97690.44;5015970;28;999;-74
2024/01/25 05:45:49;;;;;;;;;;;;;;;21.82;20.98;97686.25;5015750;28;1907;-74
2024/01/25 05:48:14;;;;;;;;;;;;;;;21.68;21.25;97698.03;4999499;28;806;-74
2024/01/25 05:50:40;;;;;;;;;;;;;;;21.80;21.07;97697.22;4979510;28;1183;-74
2024/01/25 05:53:05;;;;;;;;;;;;;;;21.70;21.09;97708.88;4995988;28;1059;-74
2024/01/25 05:55:31;;;;;;;;;;;;;;;21.73;21.15;97711.63;4963716;28;1381;-74
2024/01/25 05:57:56;;;;;;;;;;;;;;;21.61;21.08;97698.25;4996222;28;850;-74
2024/01/25 06:00:22;;;;;;;;;;;;;;;21.78;21.17;97704.59;4963804;28;986;-74
2024/01/25 06:02:48;;;;;;;;;;;;;;;21.57;21.14;97714.56;4980034;28;804;-75
2024/01/25 06:05:14;;;;;;;;;;;;;;;21.87;21.06;97703.94;4996013;28;979;-74
2024/01/25 06:07:40;;;;;;;;;;;;;;;21.87;20.97;97710.38;4995672;28;1910;-74
2024/01/25 06:10:06;;;;;;;;;;;;;;;21.91;20.63;97704.59;4979746;28;826;-74
2024/01/25 06:12:31;;;;;;;;;;;;;;;21.91;21.06;97710.25;4995957;28;759;-74
2024/01/25 06:14:57;;;;;;;;;;;;;;;21.77;20.91;97708.69;4997698;28;754;-74
2024/01/25 06:17:22;;;;;;;;;;;;;;;21.58;20.98;97711.28;4982620;28;950;-74
2024/01/25 06:19:48;;;;;;;;;;;;;;;21.91;20.61;97701.75;5015478;28;736;-74
2024/01/25 06:22:13;;;;;;;;;;;;;;;21.85;21.02;97712.84;5031277;28;985;-74
2024/01/25 06:24:39;;;;;;;;;;;;;;;21.67;21.16;97710.59;5015070;28;1117;-74
2024/01/25 06:27:04;;;;;;;;;;;;;;;22.05;20.52;97709.78;4982580;28;1911;-74
2024/01/25 06:29:30;;;;;;;;;;;;;;;21.93;20.67;97707.78;5014895;28;810;-74
2024/01/25 06:31:55;;;;;;;;;;;;;;;21.77;20.90;97712.31;4999020;28;1159;-75
2024/01/25 06:34:21;;;;;;;;;;;;;;;21.82;20.76;97702.44;5014835;28;801;-74
2024/01/25 06:36:46;;;;;;;;;;;;;;;21.69;20.88;97704.47;4998918;28;1284;-74
2024/01/25 06:39:12;;;;;;;;;;;;;;;21.96;20.69;97713.28;4998556;28;954;-74
2024/01/25 06:41:37;;;;;;;;;;;;;;;21.84;20.85;97717.72;5015032;28;1022;-74
2024/01/25 06:44:03;;;;;;;;;;;;;;;22.07;20.50;97718.63;4982188;28;771;-74
2024/01/25 06:46:28;;;;;;;;;;;;;;;22.04;20.75;97709.00;5014908;28;1910;-74
2024/01/25 06:48:54;;;;;;;;;;;;;;;22.02;20.60;97699.34;4974497;28;1238;-74
2024/01/25 06:51:19;;;;;;;;;;;;;;;21.63;20.99;97709.91;4959511;28;1109;-75
2024/01/25 06:53:45;;;;;;;;;;;;;;;21.50;21.37;97703.44;4959416;28;1159;-75
2024/01/25 06:56:10;;;;;;;;;;;;;;;21.69;20.97;97699.59;4959464;28;1030;-74
2024/01/25 06:58:36;;;;;;;;;;;;;;;21.55;21.46;97700.03;4959283;28;990;-75
2024/01/25 07:01:01;;;;;;;;;;;;;;;21.94;20.72;97698.81;4978036;28;959;-75
2024/01/25 07:03:27;;;;;;;;;;;;;;;21.77;21.01;97694.53;4981787;28;910;-75
2024/01/25 07:05:52;;;;;;;;;;;;;;;22.00;20.44;97694.16;5014486;28;1899;-75
2024/01/25 07:08:18;;;;;;;;;;;;;;;21.78;20.83;97702.56;4942964;28;1341;-75
2024/01/25 07:10:44;;;;;;;;;;;;;;;22.04;20.61;97705.38;4975309;28;977;-73
2024/01/25 07:13:09;;;;;;;;;;;;;;;21.93;20.91;97696.44;4959208;28;1116;-74
2024/01/25 07:15:35;;;;;;;;;;;;;;;22.12;20.67;97698.22;4959202;28;1189;-73
2024/01/25 07:18:00;;;;;;;;;;;;;;;22.01;20.74;97689.28;4975128;28;945;-73
2024/01/25 07:20:26;;;;;;;;;;;;;;;21.90;21.04;97692.47;4975260;28;875;-74
2024/01/25 07:22:51;;;;;;;;;;;;;;;21.95;20.98;97699.59;4974947;28;988;-73
2024/01/25 07:25:17;;;;;;;;;;;;;;;21.92;21.12;97692.03;4987375;28;1181;-73
2024/01/25 07:27:46;;;;;;;;;;;;;;;21.94;20.85;97698.03;4994168;28;1922;-73
2024/01/25 07:30:12;;;;;;;;;;;;;;;21.94;20.89;97698.03;4978218;28;1101;-73
2024/01/25 07:32:38;;;;;;;;;;;;;;;21.70;21.24;97701.19;4978373;28;1233;-73
2024/01/25 07:35:04;;;;;;;;;;;;;;;21.94;21.11;97703.69;4978218;28;966;-73
2024/01/25 07:37:30;;;;;;;;;;;;;;;21.83;20.96;97704.81;4978177;28;883;-74
2024/01/25 07:39:55;;;;;;;;;;;;;;;21.77;21.14;97700.97;5022271;28;814;-74
2024/01/25 07:42:21;;;;;;;;;;;;;;;21.98;20.99;97693.81;5031327;28;1070;-74
2024/01/25 07:44:46;;;;;;;;;;;;;;;22.00;20.92;97688.47;5031482;28;927;-74
2024/01/25 07:47:13;;;;;;;;;;;;;;;21.83;20.96;97699.16;5014814;28;1918;-74
2024/01/25 07:49:40;;;;;;;;;;;;;;;21.60;21.27;97693.81;5014910;28;719;-75
2024/01/25 07:52:05;;;;;;;;;;;;;;;21.36;21.63;97686.91;5031157;28;789;-74
2024/01/25 07:54:31;;;;;;;;;;;;;;;21.58;21.35;97682.16;5016337;28;843;-74
2024/01/25 07:56:56;;;;;;;;;;;;;;;21.70;21.45;97678.53;5031320;28;743;-74
2024/01/25 07:59:22;;;;;;;;;;;;;;;21.85;21.21;97679.66;5016101;28;728;-73
2024/01/25 08:01:48;;;;;;;;;;;;;;;21.75;21.30;97686.47;5030927;28;739;-74
2024/01/25 08:04:13;;;;;;;;;;;;;;;22.00;20.85;97696.19;4998307;28;1284;-74
2024/01/25 08:06:39;;;;;;;;;;;;;;;21.67;21.19;97690.78;5014402;28;1906;-73
2024/01/25 08:09:04;;;;;;;;;;;;;;;21.74;21.36;97699.03;4998899;28;1306;-73
2024/01/25 08:11:30;;;;;;;;;;;;;;;21.99;20.97;97705.94;5015209;28;994;-73
2024/01/25 08:13:55;;;;;;;;;;;;;;;21.84;21.38;97703.56;5031033;28;767;-73
2024/01/25 08:16:21;;;;;;;;;;;;;;;21.54;21.38;97715.44;5015974;28;751;-74
2024/01/25 08:18:46;;;;;;;;;;;;;;;22.03;21.16;97713.09;5031199;28;786;-74
2024/01/25 08:21:12;;;;;;;;;;;;;;;22.17;20.84;97720.31;4977190;28;1024;-74
2024/01/25 08:23:39;;;;;;;;;;;;;;;21.96;21.04;97718.97;4977446;28;942;-74
2024/01/25 08:26:05;;;;;;;;;;;;;;;21.85;21.42;97724.97;4978023;28;1975;-73
2024/01/25 08:28:30;;;;;;;;;;;;;;;22.10;20.99;97731.88;4977437;28;1072;-73
2024/01/25 08:30:56;;;;;;;;;;;;;;;22.05;20.97;97726.78;4993916;28;851;-73
2024/01/25 08:33:21;;;;;;;;;;;;;;;21.71;21.48;97725.44;4993365;28;900;-73
2024/01/25 08:35:47;;;;;;;;;;;;;;;21.72;21.35;97710.03;4993831;28;1157;-73
2024/01/25 08:38:12;;;;;;;;;;;;;;;21.57;21.74;97731.56;4993453;28;1079;-73
2024/01/25 08:40:38;;;;;;;;;;;;;;;21.90;21.38;97731.31;4993862;28;1129;-73
2024/01/25 08:43:04;;;;;;;;;;;;;;;21.88;21.20;97733.84;4993978;28;1020;-73
2024/01/25 08:45:30;;;;;;;;;;;;;;;21.95;21.12;97739.25;4977620;28;1183;-73
2024/01/25 08:47:56;;;;;;;;;;;;;;;21.96;21.30;97735.16;4993467;28;1902;-73
2024/01/25 08:50:22;;;;;;;;;;;;;;;21.99;21.18;97728.59;4993755;28;981;-73
2024/01/25 08:52:48;;;;;;;;;;;;;;;21.63;21.53;97735.41;5024738;28;992;-73
2024/01/25 08:55:13;;;;;;;;;;;;;;;21.78;21.47;97747.88;5016653;28;963;-73
2024/01/25 08:57:40;;;;;;;;;;;;;;;21.54;21.79;97743.75;5016645;28;1010;-73
2024/01/25 09:00:12;;;;;;;;;;;;;;;21.71;21.81;97752.94;5000337;28;1147;-73
2024/01/25 09:02:38;;;;;;;;;;;;;;;21.57;21.72;97737.22;5017024;28;1075;-73
2024/01/25 09:05:06;;;;;;;;;;;;;;;21.29;22.10;97719.00;5016662;28;1114;-73
2024/01/25 09:07:32;;;;;;;;;;;;;;;21.31;21.96;97725.84;4993311;28;1906;-73
2024/01/25 09:09:57;;;;;;;;;;;;;;;21.77;21.50;97717.97;4993747;28;1095;-73
2024/01/25 09:12:23;;;;;;;;;;;;;;;21.95;21.23;97710.94;4978273;28;1067;-74
2024/01/25 09:14:49;;;;;;;;;;;;;;;22.01;21.10;97704.22;4997134;28;1039;-74
2024/01/25 09:17:15;;;;;;;;;;;;;;;21.94;21.36;97709.34;4980720;28;1045;-73
2024/01/25 09:19:41;;;;;;;;;;;;;;;21.73;21.56;97720.13;4980557;28;950;-73
2024/01/25 09:22:07;;;;;;;;;;;;;;;22.07;21.18;97718.63;4997006;28;1288;-74
2024/01/25 09:24:35;;;;;;;;;;;;;;;21.94;21.62;97712.97;4980631;28;1090;-74
2024/01/25 09:27:04;;;;;;;;;;;;;;;21.98;21.54;97710.03;4980492;28;1910;-73
2024/01/25 09:29:29;;;;;;;;;;;;;;;21.75;21.82;97714.78;4999903;28;1064;-74
2024/01/25 09:31:55;;;;;;;;;;;;;;;21.95;21.49;97700.38;4983954;28;1166;-73
2024/01/25 09:34:21;;;;;;;;;;;;;;;22.06;21.45;97688.69;5016552;28;977;-73
2024/01/25 09:36:46;;;;;;;;;;;;;;;21.97;21.39;97697.91;5016453;28;1009;-74
2024/01/25 09:39:12;;;;;;;;;;;;;;;21.91;21.80;97704.59;5011725;28;1126;-74
2024/01/25 09:41:37;;;;;;;;;;;;;;;21.37;22.35;97711.13;5037517;28;990;-74
2024/01/25 09:44:03;;;;;;;;;;;;;;;21.62;21.97;97711.16;5037255;28;920;-74
2024/01/25 09:46:29;;;;;;;;;;;;;;;21.65;21.91;97718.75;5037046;28;1972;-74
2024/01/25 09:48:54;;;;;;;;;;;;;;;21.72;21.92;97704.38;5038582;28;948;-73
2024/01/25 09:51:20;;;;;;;;;;;;;;;21.93;21.80;97710.59;5037255;28;1196;-74
2024/01/25 09:53:45;;;;;;;;;;;;;;;21.95;21.88;97702.44;5037186;28;999;-73
2024/01/25 09:56:12;;;;;;;;;;;;;;;21.82;22.00;97708.91;5037016;28;1061;-74
2024/01/25 09:58:38;;;;;;;;;;;;;;;21.78;21.76;97707.44;5004110;28;1108;-74
2024/01/25 10:01:03;;;;;;;;;;;;;;;21.90;21.72;97703.00;5038127;28;918;-74
2024/01/25 10:03:30;;;;;;;;;;;;;;;21.95;21.93;97705.25;5036494;28;1412;-74
2024/01/25 10:05:56;;;;;;;;;;;;;;;22.11;21.78;97713.66;5036993;28;1898;-73
2024/01/25 10:08:23;;;;;;;;;;;;;;;21.91;21.84;97710.25;4999312;28;1367;-73
2024/01/25 10:10:49;;;;;;;;;;;;;;;21.87;22.06;97704.72;4976452;28;988;-74
2024/01/25 10:13:14;;;;;;;;;;;;;;;21.64;21.99;97714.34;4960417;28;976;-74
2024/01/25 10:15:41;;;;;;;;;;;;;;;21.62;22.41;97714.00;4976208;28;1059;-73
2024/01/25 10:18:12;;;;;;;;;;;;;;;21.91;21.80;97710.25;4959998;28;820;-73
2024/01/25 10:20:39;;;;;;;;;;;;;;;21.52;22.24;97715.13;4957251;29;983;-74
2024/01/25 10:23:04;;;;;;;;;;;;;;;21.76;22.02;97709.91;4937352;29;1131;-74
2024/01/25 10:25:30;;;;;;;;;;;;;;;21.76;22.29;97699.41;4937706;29;1111;-73
2024/01/25 10:27:55;;;;;;;;;;;;;;;21.93;22.06;97697.22;4940399;29;1952;-73
2024/01/25 10:30:21;;;;;;;;;;;;;;;21.91;21.87;97704.59;4937527;29;1021;-74
2024/01/25 10:32:47;;;;;;;;;;;;;;;21.59;22.35;97703.56;4937743;29;1400;-73
2024/01/25 10:35:12;;;;;;;;;;;;;;;22.03;22.06;97703.78;4953718;29;1011;-73
2024/01/25 10:37:38;;;;;;;;;;;;;;;21.96;21.83;97696.31;4953295;29;1061;-73
2024/01/25 10:40:04;;;;;;;;;;;;;;;21.83;22.04;97699.16;4952526;28;1036;-74
2024/01/25 10:42:30;;;;;;;;;;;;;;;21.76;22.11;97693.72;4971603;28;1072;-73
2024/01/25 10:44:55;;;;;;;;;;;;;;;21.91;22.20;97693.25;4992147;28;1233;-74
2024/01/25 10:47:21;;;;;;;;;;;;;;;22.04;22.06;97694.81;4959898;28;1982;-74
2024/01/25 10:49:47;;;;;;;;;;;;;;;21.59;22.41;97695.06;4959903;28;1067;-73
2024/01/25 10:52:12;;;;;;;;;;;;;;;21.80;22.48;97679.44;4974046;28;999;-73
2024/01/25 10:54:38;;;;;;;;;;;;;;;21.74;22.37;97696.22;5036527;28;985;-74
2024/01/25 10:57:04;;;;;;;;;;;;;;;21.72;22.29;97690.22;5036600;28;1167;-73
2024/01/25 10:59:30;;;;;;;;;;;;;;;21.93;22.06;97697.22;5035802;28;1006;-73
2024/01/25 11:01:56;;;;;;;;;;;;;;;21.79;22.32;97695.63;5035854;28;1096;-74
2024/01/25 11:04:22;;;;;;;;;;;;;;;22.03;22.20;97706.63;5036676;28;923;-74
2024/01/25 11:06:47;;;;;;;;;;;;;;;22.14;22.04;97707.09;5035352;28;1914;-73
2024/01/25 11:09:16;;;;;;;;;;;;;;;22.03;22.04;97698.13;5035655;28;986;-74
2024/01/25 11:11:43;;;;;;;;;;;;;;;21.98;22.22;97710.03;5035574;28;962;-73
2024/01/25 11:14:11;;;;;;;;;;;;;;;21.89;22.20;97693.72;5035457;28;904;-73
2024/01/25 11:16:41;;;;;;;;;;;;;;;21.88;22.17;97705.50;5035349;28;938;-74
2024/01/25 11:19:07;;;;;;;;;;;;;;;21.90;22.39;97705.84;5014368;28;961;-73
2024/01/25 11:21:42;;;;;;;;;;;;;;;21.96;22.12;97695.50;5014546;28;1095;-74
2024/01/25 11:24:16;;;;;;;;;;;;;;;22.10;21.92;97695.03;5013919;28;1206;-74
2024/01/25 11:26:42;;;;;;;;;;;;;;;22.15;21.91;97700.16;4974782;28;1985;-73
2024/01/25 11:29:08;;;;;;;;;;;;;;;21.58;22.79;97685.00;4959234;28;1172;-74
2024/01/25 11:31:33;;;;;;;;;;;;;;;21.61;22.79;97684.09;4959112;28;1013;-74
2024/01/25 11:33:59;;;;;;;;;;;;;;;21.63;22.59;97678.78;4958671;28;1131;-74
2024/01/25 11:36:25;;;;;;;;;;;;;;;21.55;22.88;97686.72;4958274;28;851;-74
2024/01/25 11:38:50;;;;;;;;;;;;;;;21.94;22.09;97681.03;4958661;28;875;-74
2024/01/25 11:41:16;;;;;;;;;;;;;;;21.87;22.26;97696.22;4958785;28;1137;-74
2024/01/25 11:43:41;;;;;;;;;;;;;;;21.56;22.79;97684.66;4974940;28;932;-74
2024/01/25 11:46:07;;;;;;;;;;;;;;;21.52;22.75;97686.81;4974598;28;1911;-74
2024/01/25 11:48:32;;;;;;;;;;;;;;;21.59;22.88;97689.41;4942711;28;1304;-74
2024/01/25 11:50:59;;;;;;;;;;;;;;;21.85;22.50;97685.31;4993451;28;943;-74
2024/01/25 11:53:25;;;;;;;;;;;;;;;21.93;22.35;97683.06;4997118;28;973;-74
2024/01/25 11:55:50;;;;;;;;;;;;;;;21.81;22.56;97683.84;4965107;28;1117;-74
2024/01/25 11:58:16;;;;;;;;;;;;;;;21.82;22.63;97676.97;5024496;28;789;-74
2024/01/25 12:00:41;;;;;;;;;;;;;;;21.48;22.88;97677.63;5034616;28;804;-73
2024/01/25 12:03:07;;;;;;;;;;;;;;;21.49;23.08;97684.88;5034413;28;790;-73
2024/01/25 12:05:32;;;;;;;;;;;;;;;21.59;22.79;97683.75;5018398;28;1139;-74
2024/01/25 12:07:58;;;;;;;;;;;;;;;21.96;22.50;97679.31;5034347;28;1898;-74
2024/01/25 12:10:25;;;;;;;;;;;;;;;21.92;22.53;97672.19;5034284;28;710;-73
2024/01/25 12:12:51;;;;;;;;;;;;;;;21.93;22.52;97679.44;5035917;28;1022;-74
2024/01/25 12:15:17;;;;;;;;;;;;;;;21.93;22.38;97685.09;5034559;28;774;-74
2024/01/25 12:17:42;;;;;;;;;;;;;;;21.84;22.75;97678.06;5034085;28;929;-74
2024/01/25 12:20:10;;;;;;;;;;;;;;;21.91;22.54;97679.09;5035626;28;833;-74
2024/01/25 12:22:36;;;;;;;;;;;;;;;21.87;22.25;97679.22;5034357;28;857;-73
2024/01/25 12:25:02;;;;;;;;;;;;;;;21.79;22.46;97667.31;5045789;28;1114;-73
2024/01/25 12:27:30;;;;;;;;;;;;;;;21.88;22.66;97672.31;5037566;28;1919;-73
2024/01/25 12:29:56;;;;;;;;;;;;;;;21.23;22.97;97672.72;5037553;28;979;-74
2024/01/25 12:32:21;;;;;;;;;;;;;;;21.52;22.92;97661.34;5055844;28;755;-74
2024/01/25 12:34:56;;;;;;;;;;;;;;;21.61;22.94;97658.63;5054158;28;708;-74
2024/01/25 12:37:22;;;;;;;;;;;;;;;21.74;22.71;97656.56;5053971;28;779;-73
2024/01/25 12:39:48;;;;;;;;;;;;;;;21.79;22.50;97664.50;5054624;28;825;-73
2024/01/25 12:42:14;;;;;;;;;;;;;;;21.61;22.72;97664.28;5054180;28;743;-73
2024/01/25 12:44:39;;;;;;;;;;;;;;;21.95;22.50;97654.28;5055645;28;739;-73
2024/01/25 12:47:07;;;;;;;;;;;;;;;21.88;22.77;97657.34;5056064;28;1898;-73
2024/01/25 12:49:35;;;;;;;;;;;;;;;21.95;22.45;97646.56;5041161;28;1163;-73
2024/01/25 12:52:01;;;;;;;;;;;;;;;21.84;22.42;97658.25;5059059;28;870;-73